Observation data for Northfield on 09/18/2019      Previous  Date  Next       Current Mesonet Observations  Soil Data  Daily Summary Page  Observations in Plain Language
KNOR 180500Z 15010KT 25/15 A2995 RMK A01 T02510146  RH  054%=      5-min Rain = 0
KNOR 180505Z 15010KT 25/15 A2996 RMK A01 T02500146  RH  055%=      5-min Rain = 0
KNOR 180510Z 15010KT 25/15 A2995 RMK A01 T02490146  RH  055%=      5-min Rain = 0
KNOR 180515Z 15011KT 25/15 A2995 RMK A01 T02490146  RH  055%=      5-min Rain = 0
KNOR 180520Z 15010KT 25/15 A2995 RMK A01 T02500146  RH  055%=      5-min Rain = 0
KNOR 180525Z 16010KT 25/15 A2995 RMK A01 T02490146  RH  055%=      5-min Rain = 0
KNOR 180530Z 16010KT 25/15 A2995 RMK A01 T02470147  RH  056%=      5-min Rain = 0
KNOR 180535Z 16010KT 25/15 A2995 RMK A01 T02480147  RH  056%=      5-min Rain = 0
KNOR 180540Z 16009KT 25/15 A2995 RMK A01 T02470147  RH  056%=      5-min Rain = 0
KNOR 180545Z 16010KT 25/15 A2995 RMK A01 T02460147  RH  056%=      5-min Rain = 0
KNOR 180550Z 16010KT 25/15 A2995 RMK A01 T02450147  RH  057%=      5-min Rain = 0
KNOR 180555Z 16009KT 24/15 A2995 RMK A01 T02430147  RH  057%=      5-min Rain = 0
KNOR 180600Z 16009KT 24/15 A2995 RMK A01 T02430147  RH  058%=      5-min Rain = 0
KNOR 180605Z 16009KT 24/15 A2995 RMK A01 T02420147  RH  058%=      5-min Rain = 0
KNOR 180610Z 15009KT 24/15 A2995 RMK A01 T02420148  RH  058%=      5-min Rain = 0
KNOR 180615Z 15009KT 24/15 A2995 RMK A01 T02420148  RH  058%=      5-min Rain = 0
KNOR 180620Z 15010KT 24/15 A2995 RMK A01 T02420148  RH  058%=      5-min Rain = 0
KNOR 180625Z 16010KT 24/15 A2995 RMK A01 T02430149  RH  058%=      5-min Rain = 0
KNOR 180630Z 16011KT 24/15 A2995 RMK A01 T02440149  RH  058%=      5-min Rain = 0
KNOR 180635Z 16011KT 24/15 A2995 RMK A01 T02440149  RH  058%=      5-min Rain = 0
KNOR 180640Z 16011KT 24/15 A2995 RMK A01 T02430149  RH  058%=      5-min Rain = 0
KNOR 180645Z 16011KT 24/15 A2995 RMK A01 T02420149  RH  059%=      5-min Rain = 0
KNOR 180650Z 16010KT 24/15 A2995 RMK A01 T02410150  RH  059%=      5-min Rain = 0
KNOR 180655Z 16010KT 24/15 A2995 RMK A01 T02400150  RH  060%=      5-min Rain = 0
KNOR 180700Z 16011KT 24/15 A2995 RMK A01 T02410151  RH  060%=      5-min Rain = 0
KNOR 180705Z 16010KT 24/15 A2995 RMK A01 T02390151  RH  060%=      5-min Rain = 0
KNOR 180710Z 16009KT 24/15 A2995 RMK A01 T02380152  RH  061%=      5-min Rain = 0
KNOR 180715Z 16008KT 24/15 A2995 RMK A01 T02360152  RH  062%=      5-min Rain = 0
KNOR 180720Z 17008KT 24/15 A2995 RMK A01 T02350152  RH  062%=      5-min Rain = 0
KNOR 180725Z 17009KT 23/15 A2995 RMK A01 T02340152  RH  063%=      5-min Rain = 0
KNOR 180730Z 17008KT 23/15 A2995 RMK A01 T02320152  RH  063%=      5-min Rain = 0
KNOR 180735Z 16007KT 23/15 A2996 RMK A01 T02310152  RH  064%=      5-min Rain = 0
KNOR 180740Z 16005KT 23/15 A2996 RMK A01 T02280153  RH  065%=      5-min Rain = 0
KNOR 180745Z 16005KT 22/15 A2996 RMK A01 T02240153  RH  067%=      5-min Rain = 0
KNOR 180750Z 17007KT 22/15 A2995 RMK A01 T02230153  RH  068%=      5-min Rain = 0
KNOR 180755Z 17009KT 23/15 A2995 RMK A01 T02260153  RH  066%=      5-min Rain = 0
KNOR 180800Z 16008KT 23/15 A2995 RMK A01 T02260152  RH  066%=      5-min Rain = 0
KNOR 180805Z 16009KT 23/15 A2995 RMK A01 T02280152  RH  065%=      5-min Rain = 0
KNOR 180810Z 16008KT 23/15 A2995 RMK A01 T02280152  RH  065%=      5-min Rain = 0
KNOR 180815Z 17009KT 23/15 A2995 RMK A01 T02280152  RH  065%=      5-min Rain = 0
KNOR 180820Z 17009KT 23/15 A2995 RMK A01 T02280152  RH  065%=      5-min Rain = 0
KNOR 180825Z 16008KT 23/15 A2995 RMK A01 T02270152  RH  065%=      5-min Rain = 0
KNOR 180830Z 16008KT 23/15 A2995 RMK A01 T02250152  RH  066%=      5-min Rain = 0
KNOR 180835Z 17008KT 23/15 A2995 RMK A01 T02250152  RH  066%=      5-min Rain = 0
KNOR 180840Z 17007KT 22/15 A2995 RMK A01 T02240152  RH  067%=      5-min Rain = 0
KNOR 180845Z 17006KT 22/15 A2995 RMK A01 T02230152  RH  067%=      5-min Rain = 0
KNOR 180850Z 17007KT 22/15 A2995 RMK A01 T02220152  RH  067%=      5-min Rain = 0
KNOR 180855Z 17006KT 22/15 A2995 RMK A01 T02210153  RH  068%=      5-min Rain = 0
KNOR 180900Z 17007KT 22/15 A2995 RMK A01 T02190153  RH  069%=      5-min Rain = 0
KNOR 180905Z 16007KT 22/15 A2995 RMK A01 T02200153  RH  069%=      5-min Rain = 0
KNOR 180910Z 16006KT 22/15 A2995 RMK A01 T02180153  RH  070%=      5-min Rain = 0
KNOR 180915Z 17007KT 22/15 A2995 RMK A01 T02170154  RH  070%=      5-min Rain = 0
KNOR 180920Z 16007KT 22/15 A2995 RMK A01 T02180154  RH  070%=      5-min Rain = 0
KNOR 180925Z 17006KT 22/15 A2995 RMK A01 T02180154  RH  070%=      5-min Rain = 0
KNOR 180930Z 17007KT 22/16 A2995 RMK A01 T02180155  RH  070%=      5-min Rain = 0
KNOR 180935Z 17007KT 22/16 A2995 RMK A01 T02180155  RH  070%=      5-min Rain = 0
KNOR 180940Z 17007KT 22/16 A2995 RMK A01 T02180155  RH  071%=      5-min Rain = 0
KNOR 180945Z 16006KT 22/16 A2995 RMK A01 T02170155  RH  071%=      5-min Rain = 0
KNOR 180950Z 17006KT 22/16 A2995 RMK A01 T02160155  RH  072%=      5-min Rain = 0
KNOR 180955Z 16005KT 21/16 A2996 RMK A01 T02140156  RH  072%=      5-min Rain = 0
KNOR 181000Z 16004KT 21/16 A2996 RMK A01 T02130156  RH  073%=      5-min Rain = 0
KNOR 181005Z 17004KT 21/16 A2996 RMK A01 T02110156  RH  074%=      5-min Rain = 0
KNOR 181010Z 19004KT 21/16 A2996 RMK A01 T02090155  RH  075%=      5-min Rain = 0
KNOR 181015Z 19004KT 21/16 A2996 RMK A01 T02070155  RH  075%=      5-min Rain = 0
KNOR 181020Z 20003KT 21/16 A2996 RMK A01 T02070156  RH  076%=      5-min Rain = 0
KNOR 181025Z 19004KT 21/16 A2996 RMK A01 T02080156  RH  075%=      5-min Rain = 0
KNOR 181030Z 18004KT 21/16 A2996 RMK A01 T02080156  RH  076%=      5-min Rain = 0
KNOR 181035Z 17005KT 21/16 A2996 RMK A01 T02070156  RH  076%=      5-min Rain = 0
KNOR 181040Z 18006KT 21/16 A2996 RMK A01 T02080156  RH  076%=      5-min Rain = 0
KNOR 181045Z 18006KT 21/16 A2996 RMK A01 T02080156  RH  076%=      5-min Rain = 0
KNOR 181050Z 17006KT 21/16 A2996 RMK A01 T02080157  RH  076%=      5-min Rain = 0
KNOR 181055Z 17005KT 21/16 A2996 RMK A01 T02090157  RH  076%=      5-min Rain = 0
KNOR 181100Z 17005KT 21/16 A2996 RMK A01 T02090158  RH  076%=      5-min Rain = 0
KNOR 181105Z 16006KT 21/16 A2996 RMK A01 T02090158  RH  076%=      5-min Rain = 0
KNOR 181110Z 16006KT 21/16 A2996 RMK A01 T02080159  RH  077%=      5-min Rain = 0
KNOR 181115Z 17006KT 21/16 A2996 RMK A01 T02080160  RH  077%=      5-min Rain = 0
KNOR 181120Z 16006KT 21/16 A2996 RMK A01 T02100160  RH  077%=      5-min Rain = 0
KNOR 181125Z 16006KT 21/16 A2996 RMK A01 T02090160  RH  077%=      5-min Rain = 0
KNOR 181130Z 17005KT 21/16 A2997 RMK A01 T02080160  RH  078%=      5-min Rain = 0
KNOR 181135Z 17005KT 21/16 A2997 RMK A01 T02070160  RH  078%=      5-min Rain = 0
KNOR 181140Z 16005KT 21/16 A2997 RMK A01 T02080160  RH  078%=      5-min Rain = 0
KNOR 181145Z 16004KT 21/16 A2997 RMK A01 T02070160  RH  078%=      5-min Rain = 0
KNOR 181150Z 16004KT 21/16 A2997 RMK A01 T02060160  RH  079%=      5-min Rain = 0
KNOR 181155Z 16004KT 21/16 A2997 RMK A01 T02060160  RH  079%=      5-min Rain = 0
KNOR 181200Z 16004KT 21/16 A2997 RMK A01 T02050160  RH  079%=      5-min Rain = 0
KNOR 181205Z 16005KT 20/16 A2997 RMK A01 T02040160  RH  080%=      5-min Rain = 0
KNOR 181210Z 16005KT 20/16 A2997 RMK A01 T02030160  RH  080%=      5-min Rain = 0
KNOR 181215Z 16005KT 20/16 A2998 RMK A01 T02010160  RH  081%=      5-min Rain = 0
KNOR 181220Z 16004KT 20/16 A2998 RMK A01 T02000160  RH  081%=      5-min Rain = 0
KNOR 181225Z 15004KT 20/16 A2998 RMK A01 T02010160  RH  081%=      5-min Rain = 0
KNOR 181230Z 15004KT 20/16 A2998 RMK A01 T02010160  RH  081%=      5-min Rain = 0
KNOR 181235Z 15004KT 20/16 A2998 RMK A01 T02010160  RH  081%=      5-min Rain = 0
KNOR 181240Z 15004KT 20/16 A2998 RMK A01 T02010160  RH  081%=      5-min Rain = 0
KNOR 181245Z 15004KT 20/16 A2999 RMK A01 T02010160  RH  081%=      5-min Rain = 0
KNOR 181250Z 14005KT 20/16 A2999 RMK A01 T02010161  RH  081%=      5-min Rain = 0
KNOR 181255Z 14005KT 20/16 A2999 RMK A01 T02010161  RH  081%=      5-min Rain = 0
KNOR 181300Z 14005KT 20/16 A2999 RMK A01 T02030161  RH  081%=      5-min Rain = 0
KNOR 181305Z 13004KT 21/16 A2999 RMK A01 T02070162  RH  079%=      5-min Rain = 0
KNOR 181310Z 13005KT 21/16 A2999 RMK A01 T02100163  RH  078%=      5-min Rain = 0
KNOR 181315Z 13004KT 21/16 A2999 RMK A01 T02140163  RH  076%=      5-min Rain = 0
KNOR 181320Z 14004KT 22/16 A2999 RMK A01 T02170164  RH  075%=      5-min Rain = 0
KNOR 181325Z 14004KT 22/17 A30 RMK A01 T02200165  RH  075%=      5-min Rain = 0
KNOR 181330Z 14004KT 22/17 A30 RMK A01 T02220166  RH  074%=      5-min Rain = 0
KNOR 181335Z 14004KT 23/17 A30 RMK A01 T02260165  RH  072%=      5-min Rain = 0
KNOR 181340Z 15004KT 23/17 A30 RMK A01 T02270166  RH  071%=      5-min Rain = 0
KNOR 181345Z 15004KT 23/17 A30 RMK A01 T02300166  RH  071%=      5-min Rain = 0
KNOR 181350Z 15004KT 23/17 A30 RMK A01 T02320167  RH  070%=      5-min Rain = 0
KNOR 181355Z 16006KT 24/17 A30 RMK A01 T02350167  RH  069%=      5-min Rain = 0
KNOR 181400Z 16006KT 24/17 A30 RMK A01 T02380168  RH  068%=      5-min Rain = 0
KNOR 181405Z 16005KT 24/17 A30 RMK A01 T02400168  RH  067%=      5-min Rain = 0
KNOR 181410Z 17006KT 24/17 A30 RMK A01 T02420169  RH  067%=      5-min Rain = 0
KNOR 181415Z 17005KT 24/17 A30 RMK A01 T02440169  RH  066%=      5-min Rain = 0
KNOR 181420Z 17005KT 25/17 A30 RMK A01 T02470171  RH  066%=      5-min Rain = 0
KNOR 181425Z 17006KT 25/17 A30 RMK A01 T02460170  RH  066%=      5-min Rain = 0
KNOR 181430Z 18006KT 24/17 A30 RMK A01 T02410170  RH  068%=      5-min Rain = 0
KNOR 181435Z 18005KT 24/17 A3001 RMK A01 T02400170  RH  068%=      5-min Rain = 0
KNOR 181440Z 16006KT 24/17 A3001 RMK A01 T02400170  RH  068%=      5-min Rain = 0
KNOR 181445Z 17005KT 25/17 A3001 RMK A01 T02450172  RH  067%=      5-min Rain = 0
KNOR 181450Z 16006KT 25/17 A3001 RMK A01 T02540172  RH  064%=      5-min Rain = 0
KNOR 181455Z 18006KT 26/17 A3001 RMK A01 T02590173  RH  062%=      5-min Rain = 0
KNOR 181500Z 17006KT 26/17 A3001 RMK A01 T02590173  RH  062%=      5-min Rain = 0
KNOR 181505Z 17006KT 27/18 A30 RMK A01 T02650175  RH  061%=      5-min Rain = 0
KNOR 181510Z 17008KT 27/17 A3001 RMK A01 T02650174  RH  060%=      5-min Rain = 0
KNOR 181515Z 18009KT 27/17 A3001 RMK A01 T02660174  RH  060%=      5-min Rain = 0
KNOR 181520Z 19006KT 27/18 A3001 RMK A01 T02720176  RH  059%=      5-min Rain = 0
KNOR 181525Z 19008KT 28/18 A3001 RMK A01 T02750176  RH  058%=      5-min Rain = 0
KNOR 181530Z 19008KT 28/18 A30 RMK A01 T02760176  RH  057%=      5-min Rain = 0
KNOR 181535Z 19007KT 28/18 A30 RMK A01 T02790176  RH  056%=      5-min Rain = 0
KNOR 181540Z 18007KT 29/18 A30 RMK A01 T02850177  RH  055%=      5-min Rain = 0
KNOR 181545Z 19008KT 29/18 A30 RMK A01 T02860176  RH  054%=      5-min Rain = 0
KNOR 181550Z 18009G15KT 29/18 A30 RMK A01 T02920176  RH  052%=      5-min Rain = 0
KNOR 181555Z 19010KT 29/17 A30 RMK A01 T02920174  RH  052%=      5-min Rain = 0
KNOR 181600Z 18010KT 30/17 A30 RMK A01 T02950174  RH  051%=      5-min Rain = 0
KNOR 181605Z 17010KT 30/18 A30 RMK A01 T02980175  RH  050%=      5-min Rain = 0
KNOR 181610Z 17011KT 30/17 A30 RMK A01 T02990173  RH  049%=      5-min Rain = 0
KNOR 181615Z 18009KT 30/17 A30 RMK A01 T03010173  RH  049%=      5-min Rain = 0
KNOR 181620Z 17010KT 31/17 A30 RMK A01 T03050173  RH  048%=      5-min Rain = 0
KNOR 181625Z 17012KT 31/17 A30 RMK A01 T03070171  RH  046%=      5-min Rain = 0
KNOR 181630Z 17010KT 31/17 A30 RMK A01 T03090171  RH  046%=      5-min Rain = 0
KNOR 181635Z 18010G15KT 31/17 A30 RMK A01 T03130171  RH  045%=      5-min Rain = 0
KNOR 181640Z 19011G16KT 31/17 A30 RMK A01 T03130169  RH  044%=      5-min Rain = 0
KNOR 181645Z 19010G15KT 32/17 A30 RMK A01 T03150168  RH  043%=      5-min Rain = 0
KNOR 181650Z 18010KT 32/17 A30 RMK A01 T03150168  RH  043%=      5-min Rain = 0
KNOR 181655Z 17010KT 32/17 A30 RMK A01 T03190167  RH  042%=      5-min Rain = 0
KNOR 181700Z 19010G15KT 32/17 A30 RMK A01 T03210167  RH  042%=      5-min Rain = 0
KNOR 181705Z 19010KT 32/16 A30 RMK A01 T03230164  RH  040%=      5-min Rain = 0
KNOR 181710Z 17008KT 32/17 A30 RMK A01 T03240170  RH  042%=      5-min Rain = 0
KNOR 181715Z 17007KT 33/17 A30 RMK A01 T03270173  RH  042%=      5-min Rain = 0
KNOR 181720Z 16009G14KT 33/17 A2999 RMK A01 T03250171  RH  042%=      5-min Rain = 0
KNOR 181725Z 15009G15KT 32/17 A2999 RMK A01 T03240170  RH  042%=      5-min Rain = 0
KNOR 181730Z 16008KT 33/17 A2999 RMK A01 T03290171  RH  041%=      5-min Rain = 0
KNOR 181735Z 16011G17KT 33/17 A2999 RMK A01 T03320170  RH  040%=      5-min Rain = 0
KNOR 181740Z 18010KT 33/17 A2999 RMK A01 T03320166  RH  039%=      5-min Rain = 0
KNOR 181745Z 18008G13KT 33/17 A2999 RMK A01 T03300166  RH  039%=      5-min Rain = 0
KNOR 181750Z 16010G15KT 33/16 A2999 RMK A01 T03340163  RH  038%=      5-min Rain = 0
KNOR 181755Z 16007G14KT 33/16 A2998 RMK A01 T03310160  RH  038%=      5-min Rain = 0
KNOR 181800Z 17007KT 34/16 A2998 RMK A01 T03350162  RH  037%=      5-min Rain = 0
KNOR 181805Z 15009KT 34/16 A2998 RMK A01 T03390161  RH  036%=      5-min Rain = 0
KNOR 181810Z 15010KT 34/16 A2998 RMK A01 T03370159  RH  036%=      5-min Rain = 0
KNOR 181815Z 14009G14KT 34/16 A2998 RMK A01 T03360160  RH  037%=      5-min Rain = 0
KNOR 181820Z 14010KT 34/16 A2998 RMK A01 T03380160  RH  036%=      5-min Rain = 0
KNOR 181825Z 15012G19KT 34/16 A2997 RMK A01 T03410159  RH  035%=      5-min Rain = 0
KNOR 181830Z 17008KT 34/16 A2997 RMK A01 T03420159  RH  035%=      5-min Rain = 0
KNOR 181835Z 16010KT 34/16 A2997 RMK A01 T03440157  RH  034%=      5-min Rain = 0
KNOR 181840Z 18007KT 34/16 A2997 RMK A01 T03410155  RH  034%=      5-min Rain = 0
KNOR 181845Z 16008G14KT 34/16 A2997 RMK A01 T03400157  RH  035%=      5-min Rain = 0
KNOR 181850Z 15009G16KT 34/16 A2996 RMK A01 T03410156  RH  035%=      5-min Rain = 0
KNOR 181855Z 18009G14KT 35/16 A2996 RMK A01 T03450156  RH  034%=      5-min Rain = 0
KNOR 181900Z 19009G14KT 34/16 A2996 RMK A01 T03430156  RH  034%=      5-min Rain = 0
KNOR 181905Z 17009KT 35/16 A2996 RMK A01 T03470156  RH  034%=      5-min Rain = 0
KNOR 181910Z 17007G13KT 34/15 A2995 RMK A01 T03440152  RH  033%=      5-min Rain = 0
KNOR 181915Z 21008KT 35/15 A2995 RMK A01 T03460153  RH  033%=      5-min Rain = 0
KNOR 181920Z 18007G13KT 35/15 A2995 RMK A01 T03460151  RH  033%=      5-min Rain = 0
KNOR 181925Z 16008G13KT 35/15 A2995 RMK A01 T03480151  RH  032%=      5-min Rain = 0
KNOR 181930Z 17008G14KT 35/15 A2994 RMK A01 T03470149  RH  032%=      5-min Rain = 0
KNOR 181935Z 22009G14KT 35/15 A2994 RMK A01 T03500146  RH  031%=      5-min Rain = 0
KNOR 181940Z 23007G13KT 35/15 A2994 RMK A01 T03510145  RH  030%=      5-min Rain = 0
KNOR 181945Z 19006KT 35/15 A2994 RMK A01 T03530145  RH  030%=      5-min Rain = 0
KNOR 181950Z 19006G12KT 35/14 A2994 RMK A01 T03540143  RH  030%=      5-min Rain = 0
KNOR 181955Z 18008KT 35/14 A2994 RMK A01 T03520143  RH  030%=      5-min Rain = 0
KNOR 182000Z 18005G12KT 35/14 A2993 RMK A01 T03540144  RH  030%=      5-min Rain = 0
KNOR 182005Z 18006G12KT 35/14 A2993 RMK A01 T03530143  RH  030%=      5-min Rain = 0
KNOR 182010Z 18006G11KT 35/14 A2993 RMK A01 T03530142  RH  029%=      5-min Rain = 0
KNOR 182015Z 15005KT 35/14 A2993 RMK A01 T03520139  RH  029%=      5-min Rain = 0
KNOR 182020Z 15005G12KT 35/14 A2993 RMK A01 T03510142  RH  030%=      5-min Rain = 0
KNOR 182025Z 16009KT 35/14 A2992 RMK A01 T03540143  RH  029%=      5-min Rain = 0
KNOR 182030Z 17005KT 35/14 A2992 RMK A01 T03530141  RH  029%=      5-min Rain = 0
KNOR 182035Z 16002KT 36/14 A2992 RMK A01 T03550141  RH  029%=      5-min Rain = 0
KNOR 182040Z 14003KT 36/14 A2992 RMK A01 T03570142  RH  029%=      5-min Rain = 0
KNOR 182045Z 18008G13KT 36/14 A2991 RMK A01 T03570143  RH  029%=      5-min Rain = 0
KNOR 182050Z 17006KT 36/15 A2991 RMK A01 T03590145  RH  029%=      5-min Rain = 0
KNOR 182055Z 22005KT 36/14 A2991 RMK A01 T03570140  RH  028%=      5-min Rain = 0
KNOR 182100Z 18006G11KT 36/14 A2991 RMK A01 T03580141  RH  029%=      5-min Rain = 0
KNOR 182105Z 17006KT 36/14 A2991 RMK A01 T03590142  RH  028%=      5-min Rain = 0
KNOR 182110Z 13005KT 36/14 A299 RMK A01 T03580141  RH  029%=      5-min Rain = 0
KNOR 182115Z 13007KT 36/15 A299 RMK A01 T03560146  RH  030%=      5-min Rain = 0
KNOR 182120Z 11006G11KT 36/15 A299 RMK A01 T03550149  RH  031%=      5-min Rain = 0
KNOR 182125Z 15008KT 36/15 A299 RMK A01 T03570148  RH  030%=      5-min Rain = 0
KNOR 182130Z 13006KT 36/15 A299 RMK A01 T03570148  RH  030%=      5-min Rain = 0
KNOR 182135Z 10005KT 36/15 A299 RMK A01 T03560145  RH  030%=      5-min Rain = 0
KNOR 182140Z 16008G13KT 36/15 A299 RMK A01 T03580145  RH  029%=      5-min Rain = 0
KNOR 182145Z 17008KT 35/14 A299 RMK A01 T03470143  RH  031%=      5-min Rain = 0
KNOR 182150Z 17006KT 34/14 A299 RMK A01 T03380144  RH  033%=      5-min Rain = 0
KNOR 182155Z 13003KT 34/15 A299 RMK A01 T03380145  RH  033%=      5-min Rain = 0
KNOR 182200Z 18004KT 34/14 A299 RMK A01 T03420144  RH  032%=      5-min Rain = 0
KNOR 182205Z 17005KT 34/14 A2989 RMK A01 T03390144  RH  032%=      5-min Rain = 0
KNOR 182210Z 15008G14KT 35/15 A2989 RMK A01 T03470145  RH  031%=      5-min Rain = 0
KNOR 182215Z 13007KT 34/14 A2989 RMK A01 T03420144  RH  032%=      5-min Rain = 0
KNOR 182220Z 12006G11KT 35/14 A2989 RMK A01 T03450144  RH  031%=      5-min Rain = 0
KNOR 182225Z 12006KT 35/14 A2989 RMK A01 T03470142  RH  031%=      5-min Rain = 0
KNOR 182230Z 13006KT 35/14 A2989 RMK A01 T03450143  RH  031%=      5-min Rain = 0
KNOR 182235Z 14008KT 35/14 A2989 RMK A01 T03500142  RH  030%=      5-min Rain = 0
KNOR 182240Z 14009KT 35/14 A2988 RMK A01 T03530142  RH  030%=      5-min Rain = 0
KNOR 182245Z 13008KT 35/14 A2988 RMK A01 T03500140  RH  030%=      5-min Rain = 0
KNOR 182250Z 15009KT 35/14 A2988 RMK A01 T03480141  RH  030%=      5-min Rain = 0
KNOR 182255Z 15008KT 34/14 A2988 RMK A01 T03400140  RH  031%=      5-min Rain = 0
KNOR 182300Z 13007G12KT 34/14 A2988 RMK A01 T03420138  RH  031%=      5-min Rain = 0
KNOR 182305Z 12007KT 35/14 A2988 RMK A01 T03460138  RH  030%=      5-min Rain = 0
KNOR 182310Z 14009KT 35/14 A2988 RMK A01 T03470135  RH  029%=      5-min Rain = 0
KNOR 182315Z 14008KT 35/13 A2988 RMK A01 T03480134  RH  029%=      5-min Rain = 0
KNOR 182320Z 15008KT 35/14 A2988 RMK A01 T03480135  RH  029%=      5-min Rain = 0
KNOR 182325Z 14008KT 35/13 A2988 RMK A01 T03470134  RH  029%=      5-min Rain = 0
KNOR 182330Z 13007KT 35/13 A2988 RMK A01 T03450133  RH  029%=      5-min Rain = 0
KNOR 182335Z 14009KT 34/13 A2989 RMK A01 T03420132  RH  029%=      5-min Rain = 0
KNOR 182340Z 14008KT 33/14 A2989 RMK A01 T03340139  RH  032%=      5-min Rain = 0
KNOR 182345Z 12009KT 33/14 A2989 RMK A01 T03290141  RH  034%=      5-min Rain = 0
KNOR 182350Z 14007KT 33/14 A299 RMK A01 T03270142  RH  034%=      5-min Rain = 0
KNOR 182355Z 13008KT 33/14 A299 RMK A01 T03250142  RH  034%=      5-min Rain = 0
KNOR 190000Z 13006KT 32/14 A299 RMK A01 T03230143  RH  035%=      5-min Rain = 0
KNOR 190005Z 12007KT 32/14 A299 RMK A01 T03210143  RH  036%=      5-min Rain = 0
KNOR 190010Z 12006KT 32/14 A299 RMK A01 T03190144  RH  036%=      5-min Rain = 0
KNOR 190015Z 12006KT 32/14 A299 RMK A01 T03160144  RH  037%=      5-min Rain = 0
KNOR 190020Z 12006KT 32/14 A299 RMK A01 T03150144  RH  037%=      5-min Rain = 0
KNOR 190025Z 11006KT 31/14 A299 RMK A01 T03130144  RH  038%=      5-min Rain = 0
KNOR 190030Z 11006KT 31/14 A299 RMK A01 T03110144  RH  038%=      5-min Rain = 0
KNOR 190035Z 11006KT 31/15 A299 RMK A01 T03080145  RH  039%=      5-min Rain = 0
KNOR 190040Z 11006KT 31/14 A299 RMK A01 T03060144  RH  039%=      5-min Rain = 0
KNOR 190045Z 11006KT 30/15 A299 RMK A01 T03030145  RH  040%=      5-min Rain = 0
KNOR 190050Z 11006KT 30/14 A2991 RMK A01 T03010144  RH  040%=      5-min Rain = 0
KNOR 190055Z 10006KT 30/15 A2991 RMK A01 T02990145  RH  041%=      5-min Rain = 0
KNOR 190100Z 10006KT 30/15 A2991 RMK A01 T02970145  RH  041%=      5-min Rain = 0
KNOR 190105Z 10006KT 30/15 A2991 RMK A01 T02960146  RH  042%=      5-min Rain = 0
KNOR 190110Z 10007KT 29/15 A2991 RMK A01 T02940148  RH  043%=      5-min Rain = 0
KNOR 190115Z 11007KT 29/15 A2991 RMK A01 T02930150  RH  044%=      5-min Rain = 0
KNOR 190120Z 11008KT 29/15 A2991 RMK A01 T02940152  RH  044%=      5-min Rain = 0
KNOR 190125Z 11009KT 30/15 A2992 RMK A01 T02950154  RH  044%=      5-min Rain = 0
KNOR 190130Z 11008KT 29/16 A2992 RMK A01 T02940155  RH  045%=      5-min Rain = 0
KNOR 190135Z 11008KT 29/16 A2992 RMK A01 T02930155  RH  045%=      5-min Rain = 0
KNOR 190140Z 11008KT 29/16 A2992 RMK A01 T02920155  RH  046%=      5-min Rain = 0
KNOR 190145Z 11007KT 29/16 A2993 RMK A01 T02910156  RH  046%=      5-min Rain = 0
KNOR 190150Z 11007KT 29/16 A2993 RMK A01 T02900156  RH  046%=      5-min Rain = 0
KNOR 190155Z 12008KT 29/16 A2994 RMK A01 T02890156  RH  047%=      5-min Rain = 0
KNOR 190200Z 11008KT 29/16 A2994 RMK A01 T02880156  RH  047%=      5-min Rain = 0
KNOR 190205Z 12008G13KT 29/16 A2994 RMK A01 T02870156  RH  047%=      5-min Rain = 0
KNOR 190210Z 12009KT 29/16 A2994 RMK A01 T02870156  RH  047%=      5-min Rain = 0
KNOR 190215Z 12009KT 29/16 A2994 RMK A01 T02860155  RH  047%=      5-min Rain = 0
KNOR 190220Z 12009KT 29/15 A2995 RMK A01 T02850154  RH  047%=      5-min Rain = 0
KNOR 190225Z 12009KT 29/15 A2995 RMK A01 T02850154  RH  047%=      5-min Rain = 0
KNOR 190230Z 12009G14KT 28/15 A2995 RMK A01 T02840154  RH  047%=      5-min Rain = 0
KNOR 190235Z 12009KT 28/15 A2995 RMK A01 T02830154  RH  047%=      5-min Rain = 0
KNOR 190240Z 12009KT 28/15 A2995 RMK A01 T02820153  RH  048%=      5-min Rain = 0
KNOR 190245Z 12010G16KT 28/15 A2995 RMK A01 T02820153  RH  047%=      5-min Rain = 0
KNOR 190250Z 12009G14KT 28/15 A2995 RMK A01 T02810153  RH  048%=      5-min Rain = 0
KNOR 190255Z 12009KT 28/15 A2995 RMK A01 T02800153  RH  048%=      5-min Rain = 0
KNOR 190300Z 12009G15KT 28/15 A2995 RMK A01 T02790153  RH  048%=      5-min Rain = 0
KNOR 190305Z 12010G15KT 28/15 A2995 RMK A01 T02790154  RH  049%=      5-min Rain = 0
KNOR 190310Z 12009G14KT 28/16 A2995 RMK A01 T02780155  RH  049%=      5-min Rain = 0
KNOR 190315Z 13009KT 28/16 A2996 RMK A01 T02760155  RH  050%=      5-min Rain = 0
KNOR 190320Z 13009KT 28/16 A2996 RMK A01 T02760156  RH  050%=      5-min Rain = 0
KNOR 190325Z 13009KT 28/16 A2996 RMK A01 T02750157  RH  051%=      5-min Rain = 0
KNOR 190330Z 13009KT 28/16 A2996 RMK A01 T02750157  RH  051%=      5-min Rain = 0
KNOR 190335Z 13010KT 27/16 A2996 RMK A01 T02740158  RH  052%=      5-min Rain = 0
KNOR 190340Z 14009KT 27/16 A2996 RMK A01 T02720158  RH  052%=      5-min Rain = 0
KNOR 190345Z 14010KT 27/16 A2996 RMK A01 T02720158  RH  052%=      5-min Rain = 0
KNOR 190350Z 13010G15KT 27/16 A2996 RMK A01 T02710159  RH  053%=      5-min Rain = 0
KNOR 190355Z 13010KT 27/16 A2996 RMK A01 T02700159  RH  053%=      5-min Rain = 0
KNOR 190400Z 13009KT 27/16 A2996 RMK A01 T02690160  RH  054%=      5-min Rain = 0
KNOR 190405Z 14010KT 27/16 A2996 RMK A01 T02680160  RH  054%=      5-min Rain = 0
KNOR 190410Z 13010KT 27/16 A2996 RMK A01 T02680160  RH  054%=      5-min Rain = 0
KNOR 190415Z 14010KT 27/16 A2996 RMK A01 T02670161  RH  055%=      5-min Rain = 0
KNOR 190420Z 14009KT 27/16 A2996 RMK A01 T02650161  RH  055%=      5-min Rain = 0
KNOR 190425Z 14009KT 26/16 A2996 RMK A01 T02640161  RH  056%=      5-min Rain = 0
KNOR 190430Z 14008KT 26/16 A2996 RMK A01 T02620162  RH  056%=      5-min Rain = 0
KNOR 190435Z 14008KT 26/16 A2996 RMK A01 T02620162  RH  057%=      5-min Rain = 0
KNOR 190440Z 14008KT 26/16 A2996 RMK A01 T02600162  RH  057%=      5-min Rain = 0
KNOR 190445Z 14007KT 26/16 A2996 RMK A01 T02590162  RH  058%=      5-min Rain = 0
KNOR 190450Z 13007KT 26/16 A2996 RMK A01 T02570163  RH  059%=      5-min Rain = 0
KNOR 190455Z 14006KT 26/16 A2996 RMK A01 T02550163  RH  059%=      5-min Rain = 0

Page generated in 0.0091 seconds.